createdAt,value
2022-07-29T00:00:11.359Z,101175.69
2022-07-29T00:01:19.736Z,101173.97
2022-07-29T00:02:17.010Z,101176.67
2022-07-29T00:03:20.760Z,101171.32
2022-07-29T00:04:22.838Z,101172.22
2022-07-29T00:05:24.807Z,101171.38
2022-07-29T00:06:27.374Z,101163.47
2022-07-29T00:07:29.331Z,101169.63
2022-07-29T00:08:31.288Z,101164.38
2022-07-29T00:09:33.437Z,101172.37
2022-07-29T00:10:37.543Z,101172.37
2022-07-29T00:11:39.513Z,101169.72
2022-07-29T00:12:41.465Z,101171.52
2022-07-29T00:13:46.490Z,101168.92
2022-07-29T00:14:47.206Z,101161.02
2022-07-29T00:15:50.278Z,101170.77
2022-07-29T00:16:52.497Z,101162.87
2022-07-29T00:17:54.499Z,101168.16
2022-07-29T00:18:57.299Z,101168.21
2022-07-29T00:20:00.247Z,101159.50
2022-07-29T00:21:02.200Z,101166.52
2022-07-29T00:22:05.379Z,101177.16
2022-07-29T00:23:07.334Z,101166.61
2022-07-29T00:24:11.131Z,101171.95
2022-07-29T00:25:13.182Z,101164.10
2022-07-29T00:26:16.055Z,101164.10
2022-07-29T00:27:18.008Z,101165.04
2022-07-29T00:28:19.962Z,101165.89
2022-07-29T00:29:37.364Z,101161.50
2022-07-29T00:30:26.730Z,101161.50
2022-07-29T00:31:28.724Z,101163.30
2022-07-29T00:32:30.739Z,101164.24
2022-07-29T00:33:32.688Z,101159.94
2022-07-29T00:34:34.643Z,101160.83
2022-07-29T00:35:36.600Z,101157.34
2022-07-29T00:36:38.645Z,101158.27
2022-07-29T00:37:40.602Z,101161.78
2022-07-29T00:38:42.557Z,101159.18
2022-07-29T00:39:44.517Z,101159.22
2022-07-29T00:40:46.662Z,101153.11
2022-07-29T00:41:48.618Z,101160.22
2022-07-29T00:42:51.294Z,101156.72
2022-07-29T00:43:53.750Z,101157.57
2022-07-29T00:44:55.705Z,101160.22
2022-07-29T00:45:57.654Z,101166.41
2022-07-29T00:46:59.846Z,101168.16
2022-07-29T00:48:01.866Z,101168.26
2022-07-29T00:49:03.845Z,101166.50
2022-07-29T00:50:06.078Z,101171.75
2022-07-29T00:51:08.034Z,101176.06
2022-07-29T00:52:09.914Z,101176.06
2022-07-29T00:53:11.937Z,101178.72
2022-07-29T00:54:14.226Z,101174.30
2022-07-29T00:55:16.458Z,101172.61
2022-07-29T00:56:19.741Z,101171.70
2022-07-29T00:57:21.695Z,101177.00
2022-07-29T00:58:23.644Z,101176.16
2022-07-29T00:59:25.603Z,101172.70
2022-07-29T01:00:30.314Z,101178.04
2022-07-29T01:01:32.710Z,101175.48
2022-07-29T01:02:34.802Z,101177.27
2022-07-29T01:03:39.175Z,101182.61
2022-07-29T01:04:41.201Z,101189.71
2022-07-29T01:05:48.143Z,101184.46
2022-07-29T01:06:46.946Z,101191.50
2022-07-29T01:07:48.898Z,101179.25
2022-07-29T01:08:50.849Z,101187.24
2022-07-29T01:09:52.804Z,101183.78
2022-07-29T01:10:54.958Z,101182.89
2022-07-29T01:11:58.557Z,101180.29
2022-07-29T01:13:00.503Z,101180.38
2022-07-29T01:14:02.453Z,101163.77
2022-07-29T01:15:04.409Z,101169.84
2022-07-29T01:16:06.707Z,101175.14
2022-07-29T01:17:08.722Z,101175.18
2022-07-29T01:18:10.669Z,101168.21
2022-07-29T01:19:12.730Z,101171.77
2022-07-29T01:20:15.399Z,101165.63
2022-07-29T01:21:18.379Z,101171.84
2022-07-29T01:22:20.325Z,101164.77
2022-07-29T01:23:22.381Z,101162.12
2022-07-29T01:24:24.342Z,101161.26
2022-07-29T01:25:26.294Z,101160.28
2022-07-29T01:26:30.189Z,101155.92
2022-07-29T01:27:33.983Z,101151.53
2022-07-29T01:28:35.937Z,101151.53
2022-07-29T01:29:38.832Z,101151.48
2022-07-29T01:30:41.678Z,101156.78
2022-07-29T01:31:58.554Z,101158.57
2022-07-29T01:32:48.672Z,101158.57
2022-07-29T01:33:51.016Z,101158.57
2022-07-29T01:34:52.973Z,101159.42
2022-07-29T01:35:54.846Z,101165.63
2022-07-29T01:36:56.772Z,101162.97
2022-07-29T01:37:58.729Z,101168.27
2022-07-29T01:39:00.675Z,101157.72
2022-07-29T01:40:02.834Z,101169.33
2022-07-29T01:41:04.803Z,101166.69
2022-07-29T01:42:06.739Z,101171.09
2022-07-29T01:43:08.896Z,101171.98
2022-07-29T01:44:10.858Z,101168.44
2022-07-29T01:45:12.801Z,101168.44
2022-07-29T01:46:16.666Z,101163.19
2022-07-29T01:47:18.675Z,101164.98
2022-07-29T01:48:20.707Z,101162.42
2022-07-29T01:49:22.766Z,101172.19
2022-07-29T01:50:25.123Z,101176.63
2022-07-29T01:51:27.074Z,101176.72
2022-07-29T01:52:29.031Z,101182.02
2022-07-29T01:53:37.789Z,101190.89
2022-07-29T01:54:34.779Z,101185.68
2022-07-29T01:55:36.733Z,101192.89
2022-07-29T01:56:38.880Z,101187.67
2022-07-29T01:57:40.839Z,101185.11
2022-07-29T01:58:43.096Z,101185.11
2022-07-29T01:59:45.051Z,101184.25
2022-07-29T02:00:47.313Z,101182.47
2022-07-29T02:01:49.316Z,101187.80
2022-07-29T02:02:51.932Z,101185.23
2022-07-29T02:03:53.893Z,101185.23
2022-07-29T02:04:55.871Z,101186.13
2022-07-29T02:05:57.894Z,101194.11
2022-07-29T02:07:00.146Z,101188.90
2022-07-29T02:08:02.106Z,101188.94
2022-07-29T02:09:04.058Z,101194.23
2022-07-29T02:10:08.175Z,101192.44
2022-07-29T02:11:10.116Z,101192.41
2022-07-29T02:12:12.063Z,101201.23
2022-07-29T02:13:14.037Z,101200.38
2022-07-29T02:14:16.272Z,101201.30
2022-07-29T02:15:18.433Z,101196.91
2022-07-29T02:16:20.755Z,101206.63
2022-07-29T02:17:22.748Z,101203.09
2022-07-29T02:18:24.701Z,101203.98
2022-07-29T02:19:26.655Z,101203.98
2022-07-29T02:20:28.810Z,101198.78
2022-07-29T02:21:30.762Z,101199.67
2022-07-29T02:22:32.713Z,101199.67
2022-07-29T02:23:45.302Z,101209.44
2022-07-29T02:24:38.343Z,101198.94
2022-07-29T02:25:40.204Z,101201.58
2022-07-29T02:26:42.253Z,101197.15
2022-07-29T02:27:44.207Z,101200.65
2022-07-29T02:28:46.161Z,101202.44
2022-07-29T02:29:48.215Z,101199.83
2022-07-29T02:30:50.336Z,101194.62
2022-07-29T02:31:52.943Z,101199.91
2022-07-29T02:32:54.889Z,101197.31
2022-07-29T02:33:56.840Z,101195.59
2022-07-29T02:34:58.823Z,101201.74
2022-07-29T02:36:01.164Z,101200.89
2022-07-29T02:37:03.109Z,101206.22
2022-07-29T02:38:04.966Z,101205.39
2022-07-29T02:39:06.910Z,101204.50
2022-07-29T02:40:11.016Z,101202.78
2022-07-29T02:41:12.974Z,101202.78
2022-07-29T02:42:19.941Z,101200.14
2022-07-29T02:43:23.557Z,101200.18
2022-07-29T02:44:25.378Z,101208.97
2022-07-29T02:45:28.375Z,101200.25
2022-07-29T02:46:32.589Z,101202.94
2022-07-29T02:47:41.915Z,101207.34
2022-07-29T02:48:38.312Z,101218.88
2022-07-29T02:49:40.265Z,101216.27
2022-07-29T02:50:42.313Z,101219.80
2022-07-29T02:51:45.069Z,101219.80
2022-07-29T02:52:47.249Z,101225.95
2022-07-29T02:53:49.194Z,101212.73
2022-07-29T02:54:51.148Z,101216.27
2022-07-29T02:55:53.098Z,101215.38
2022-07-29T02:56:55.264Z,101223.31
2022-07-29T02:57:57.210Z,101225.09
2022-07-29T02:58:59.164Z,101218.91
2022-07-29T03:00:01.214Z,101225.95
2022-07-29T03:01:03.171Z,101224.23
2022-07-29T03:02:05.270Z,101225.98
2022-07-29T03:03:07.178Z,101233.06
2022-07-29T03:04:09.047Z,101232.16
2022-07-29T03:05:11.182Z,101230.45
2022-07-29T03:06:38.520Z,101232.12
2022-07-29T03:08:39.368Z,101229.48
2022-07-29T03:09:41.317Z,101223.37
2022-07-29T03:10:43.476Z,101219.80
2022-07-29T03:11:50.680Z,101211.91
2022-07-29T03:12:49.125Z,101219.80
2022-07-29T03:13:51.289Z,101212.73
2022-07-29T03:14:53.237Z,101215.41
2022-07-29T03:15:55.220Z,101218.05
2022-07-29T03:16:57.549Z,101215.38
2022-07-29T03:17:59.497Z,101209.23
2022-07-29T03:20:28.910Z,101210.94
2022-07-29T03:21:31.484Z,101213.63
2022-07-29T03:22:33.430Z,101215.30
2022-07-29T03:23:36.913Z,101221.48
2022-07-29T03:24:39.076Z,101211.73
2022-07-29T03:25:41.028Z,101211.69
2022-07-29T03:26:43.183Z,101211.66
2022-07-29T03:27:45.342Z,101215.12
2022-07-29T03:28:47.299Z,101210.68
2022-07-29T03:29:50.626Z,101205.39
2022-07-29T03:30:53.460Z,101215.08
2022-07-29T03:31:57.149Z,101213.36
2022-07-29T03:32:59.302Z,101215.97
2022-07-29T03:34:01.255Z,101215.97
2022-07-29T03:35:03.207Z,101215.97
2022-07-29T03:36:05.362Z,101218.66
2022-07-29T03:37:07.374Z,101220.44
2022-07-29T03:38:09.269Z,101216.94
2022-07-29T03:39:11.220Z,101219.58
2022-07-29T03:40:15.020Z,101214.30
2022-07-29T03:41:16.971Z,101219.55
2022-07-29T03:42:20.662Z,101218.69
2022-07-29T03:43:22.718Z,101209.01
2022-07-29T03:44:24.674Z,101216.91
2022-07-29T03:45:26.629Z,101207.22
2022-07-29T03:46:29.746Z,101213.41
2022-07-29T03:47:49.561Z,101216.01
2022-07-29T03:48:35.656Z,101208.97
2022-07-29T03:49:37.608Z,101219.55
2022-07-29T03:50:39.660Z,101220.48
2022-07-29T03:51:41.612Z,101208.27
2022-07-29T03:52:43.569Z,101215.27
2022-07-29T03:53:47.361Z,101215.27
2022-07-29T03:54:49.314Z,101211.73
2022-07-29T03:55:51.266Z,101209.94
2022-07-29T03:56:53.344Z,101212.63
2022-07-29T03:57:55.274Z,101211.80
2022-07-29T03:58:57.227Z,101210.02
2022-07-29T03:59:59.182Z,101218.80
2022-07-29T04:01:01.338Z,101220.52
2022-07-29T04:02:03.369Z,101216.13
2022-07-29T04:03:05.339Z,101209.05
2022-07-29T04:04:09.138Z,101207.22
2022-07-29T04:05:11.002Z,101212.40
2022-07-29T04:06:13.327Z,101211.58
2022-07-29T04:07:15.203Z,101219.52
2022-07-29T04:08:17.157Z,101213.33
2022-07-29T04:09:19.105Z,101215.93
2022-07-29T04:10:30.367Z,101216.79
2022-07-29T04:11:26.599Z,101215.00
2022-07-29T04:12:28.556Z,101221.14
2022-07-29T04:13:30.499Z,101221.11
2022-07-29T04:14:32.450Z,101222.86
2022-07-29T04:15:34.433Z,101222.86
2022-07-29T04:16:37.077Z,101229.04
2022-07-29T04:17:39.134Z,101230.79
2022-07-29T04:18:41.082Z,101224.61
2022-07-29T04:19:43.137Z,101225.50
2022-07-29T04:20:45.301Z,101236.93
2022-07-29T04:21:47.451Z,101233.39
2022-07-29T04:22:50.024Z,101234.25
2022-07-29T04:23:53.811Z,101235.95
2022-07-29T04:24:59.031Z,101239.50
2022-07-29T04:25:59.458Z,101233.31
2022-07-29T04:27:01.516Z,101237.67
2022-07-29T04:28:03.480Z,101238.53
2022-07-29T04:29:05.442Z,101245.53
2022-07-29T04:30:07.882Z,101236.74
2022-07-29T04:31:09.894Z,101242.03
2022-07-29T04:32:11.889Z,101243.78
2022-07-29T04:33:14.971Z,101241.09
2022-07-29T04:34:17.207Z,101233.08
2022-07-29T04:35:19.692Z,101237.45
2022-07-29T04:36:29.535Z,101235.62
2022-07-29T04:37:25.852Z,101237.33
2022-07-29T04:38:27.832Z,101234.64
2022-07-29T04:39:30.482Z,101237.25
2022-07-29T04:40:32.933Z,101232.85
2022-07-29T04:41:35.080Z,101232.85
2022-07-29T04:42:46.406Z,101228.42
2022-07-29T04:43:41.351Z,101229.31
2022-07-29T04:44:43.817Z,101224.84
2022-07-29T04:45:45.760Z,101217.72
2022-07-29T04:46:47.953Z,101220.28
2022-07-29T04:47:49.980Z,101215.84
2022-07-29T04:48:52.026Z,101215.77
2022-07-29T04:49:53.979Z,101219.22
2022-07-29T04:50:56.341Z,101220.08
2022-07-29T04:51:58.296Z,101215.68
2022-07-29T04:53:00.246Z,101218.33
2022-07-29T04:54:02.197Z,101220.97
2022-07-29T04:55:04.160Z,101220.94
2022-07-29T04:56:06.412Z,101231.52
2022-07-29T04:57:08.371Z,101220.94
2022-07-29T04:58:10.334Z,101227.98
2022-07-29T04:59:12.174Z,101219.14
2022-07-29T05:00:15.663Z,101221.79
2022-07-29T05:01:17.638Z,101225.30
2022-07-29T05:02:19.732Z,101218.20
2022-07-29T05:03:22.545Z,101220.81
2022-07-29T05:04:24.487Z,101228.75
2022-07-29T05:05:26.437Z,101226.06
2022-07-29T05:06:29.106Z,101226.02
2022-07-29T05:07:31.063Z,101227.73
2022-07-29T05:08:33.125Z,101224.15
2022-07-29T05:09:35.070Z,101230.33
2022-07-29T05:10:37.435Z,101232.94
2022-07-29T05:11:39.386Z,101221.42
2022-07-29T05:12:41.233Z,101211.68
2022-07-29T05:13:46.061Z,101221.30
2022-07-29T05:14:46.879Z,101223.00
2022-07-29T05:15:48.904Z,101219.37
2022-07-29T05:16:51.299Z,101218.42
2022-07-29T05:17:53.258Z,101217.53
2022-07-29T05:18:55.208Z,101222.79
2022-07-29T05:19:57.159Z,101222.74
2022-07-29T05:20:59.419Z,101220.98
2022-07-29T05:22:01.365Z,101228.88
2022-07-29T05:23:03.348Z,101225.34
2022-07-29T05:24:05.273Z,101223.58
2022-07-29T05:25:09.283Z,101230.55
2022-07-29T05:26:11.529Z,101226.10
2022-07-29T05:27:13.488Z,101232.17
2022-07-29T05:28:15.436Z,101232.12
2022-07-29T05:29:43.112Z,101232.12
2022-07-29T05:30:21.387Z,101234.73
2022-07-29T05:31:23.395Z,101235.59
2022-07-29T05:32:25.400Z,101240.83
2022-07-29T05:33:34.813Z,101249.63
2022-07-29T05:34:31.157Z,101242.55
2022-07-29T05:35:33.099Z,101246.04
2022-07-29T05:36:35.355Z,101240.74
2022-07-29T05:37:37.297Z,101246.00
2022-07-29T05:38:39.163Z,101231.77
2022-07-29T05:39:48.581Z,101234.42
2022-07-29T05:40:44.912Z,101233.56
2022-07-29T05:41:51.762Z,101239.67
2022-07-29T05:42:50.669Z,101236.13
2022-07-29T05:43:53.126Z,101238.73
2022-07-29T05:44:55.386Z,101230.74
2022-07-29T05:45:57.520Z,101242.15
2022-07-29T05:46:59.897Z,101228.99
2022-07-29T05:48:01.868Z,101237.70
2022-07-29T05:49:03.913Z,101243.85
2022-07-29T05:50:06.062Z,101245.59
2022-07-29T05:51:07.941Z,101242.02
2022-07-29T05:52:09.866Z,101245.55
2022-07-29T05:53:19.345Z,101249.02
2022-07-29T05:54:15.807Z,101241.95
2022-07-29T05:55:18.077Z,101241.95
2022-07-29T05:56:20.958Z,101242.86
2022-07-29T05:57:22.905Z,101240.21
2022-07-29T05:58:24.866Z,101242.81
2022-07-29T05:59:30.252Z,101237.52
2022-07-29T06:00:31.637Z,101240.17
2022-07-29T06:01:33.862Z,101240.98
2022-07-29T06:02:35.840Z,101235.68
2022-07-29T06:03:37.792Z,101233.87
2022-07-29T06:04:39.682Z,101232.03
2022-07-29T06:05:41.695Z,101234.69
2022-07-29T06:06:43.854Z,101236.48
2022-07-29T06:07:50.090Z,101233.78
2022-07-29T06:08:49.915Z,101234.64
2022-07-29T06:09:51.875Z,101231.09
2022-07-29T06:10:54.019Z,101235.41
2022-07-29T06:11:55.974Z,101238.85
2022-07-29T06:12:57.926Z,101231.72
2022-07-29T06:13:59.878Z,101231.62
2022-07-29T06:15:01.828Z,101234.23
2022-07-29T06:16:04.039Z,101237.67
2022-07-29T06:17:06.081Z,101234.04
2022-07-29T06:18:07.992Z,101235.77
2022-07-29T06:19:10.361Z,101225.98
2022-07-29T06:20:15.337Z,101240.03
2022-07-29T06:21:17.441Z,101235.53
2022-07-29T06:22:19.387Z,101237.28
2022-07-29T06:23:21.755Z,101239.89
2022-07-29T06:24:24.030Z,101231.93
2022-07-29T06:25:25.870Z,101234.48
2022-07-29T06:26:30.426Z,101237.05
2022-07-29T06:27:33.347Z,101227.25
2022-07-29T06:28:37.145Z,101225.44
2022-07-29T06:29:39.094Z,101223.59
2022-07-29T06:30:41.186Z,101220.89
2022-07-29T06:31:43.208Z,101222.59
2022-07-29T06:32:45.168Z,101225.19
2022-07-29T06:33:47.117Z,101223.34
2022-07-29T06:34:49.089Z,101217.94
2022-07-29T06:35:52.433Z,101221.41
2022-07-29T06:36:55.017Z,101221.38
2022-07-29T06:37:59.530Z,101216.03
2022-07-29T06:39:01.276Z,101215.93
2022-07-29T06:40:05.239Z,101224.64
2022-07-29T06:41:07.158Z,101221.08
2022-07-29T06:42:09.387Z,101226.34
2022-07-29T06:43:11.349Z,101222.75
2022-07-29T06:44:13.543Z,101214.69
2022-07-29T06:45:15.755Z,101224.39
2022-07-29T06:46:18.855Z,101220.83
2022-07-29T06:47:20.792Z,101221.63
2022-07-29T06:48:22.741Z,101218.02
2022-07-29T06:49:24.729Z,101227.73
2022-07-29T06:50:28.488Z,101226.78
2022-07-29T06:51:30.964Z,101224.03
2022-07-29T06:52:33.129Z,101222.22
2022-07-29T06:53:35.077Z,101217.72
2022-07-29T06:54:37.027Z,101222.95
2022-07-29T06:55:39.079Z,101221.10
2022-07-29T06:56:41.226Z,101220.19
2022-07-29T06:57:43.204Z,101221.88
2022-07-29T06:58:45.453Z,101225.34
2022-07-29T06:59:47.330Z,101228.80
2022-07-29T07:00:49.416Z,101222.53
2022-07-29T07:01:51.456Z,101216.31
2022-07-29T07:02:53.535Z,101218.06
2022-07-29T07:03:55.520Z,101223.31
2022-07-29T07:04:57.469Z,101225.02
2022-07-29T07:05:59.424Z,101213.50
2022-07-29T07:07:02.401Z,101218.75
2022-07-29T07:08:04.968Z,101210.69
2022-07-29T07:09:06.925Z,101213.28
2022-07-29T07:10:09.794Z,101200.02
2022-07-29T07:11:11.848Z,101209.66
2022-07-29T07:12:13.803Z,101205.16
2022-07-29T07:13:15.753Z,101207.76
2022-07-29T07:14:17.966Z,101212.11
2022-07-29T07:15:20.276Z,101212.05
2022-07-29T07:16:22.793Z,101209.34
2022-07-29T07:17:24.795Z,101207.48
2022-07-29T07:18:26.744Z,101203.01
2022-07-29T07:19:28.695Z,101199.30
2022-07-29T07:20:30.955Z,101199.19
2022-07-29T07:21:33.420Z,101194.66
2022-07-29T07:22:38.964Z,101202.56
2022-07-29T07:23:40.396Z,101203.36
2022-07-29T07:24:42.349Z,101202.39
2022-07-29T07:25:44.313Z,101205.05
2022-07-29T07:26:46.875Z,101206.73
2022-07-29T07:27:48.827Z,101197.77
2022-07-29T07:28:50.733Z,101209.28
2022-07-29T07:29:52.653Z,101198.66
2022-07-29T07:30:54.786Z,101202.11
2022-07-29T07:32:00.945Z,101190.61
2022-07-29T07:33:00.538Z,101200.29
2022-07-29T07:34:02.487Z,101196.66
2022-07-29T07:35:04.438Z,101206.37
2022-07-29T07:36:06.696Z,101208.14
2022-07-29T07:37:08.644Z,101203.72
2022-07-29T07:38:10.596Z,101203.66
2022-07-29T07:39:12.556Z,101205.31
2022-07-29T07:40:18.557Z,101208.92
2022-07-29T07:41:18.810Z,101208.86
2022-07-29T07:42:20.865Z,101206.14
2022-07-29T07:43:22.819Z,101206.95
2022-07-29T07:44:24.782Z,101205.14
2022-07-29T07:45:26.777Z,101206.03
2022-07-29T07:46:29.191Z,101202.41
2022-07-29T07:47:31.144Z,101212.03
2022-07-29T07:48:34.936Z,101200.48
2022-07-29T07:49:36.893Z,101201.28
2022-07-29T07:50:38.941Z,101200.31
2022-07-29T07:51:41.203Z,101204.66
2022-07-29T07:52:43.156Z,101209.02
2022-07-29T07:53:45.109Z,101207.25
2022-07-29T07:54:47.061Z,101200.98
2022-07-29T07:56:53.479Z,101202.61
2022-07-29T07:57:56.507Z,101204.36
2022-07-29T07:58:58.454Z,101204.30
2022-07-29T08:00:00.412Z,101193.67
2022-07-29T08:01:03.731Z,101192.75
2022-07-29T08:02:05.885Z,101190.89
2022-07-29T08:03:16.843Z,101197.00
2022-07-29T08:04:11.696Z,101196.03
2022-07-29T08:05:13.649Z,101198.63
2022-07-29T08:06:16.934Z,101196.77
2022-07-29T08:07:18.891Z,101194.94
2022-07-29T08:08:22.150Z,101203.70
2022-07-29T08:09:29.687Z,101201.05
2022-07-29T08:10:28.123Z,101195.67
2022-07-29T08:11:34.073Z,101193.80
2022-07-29T08:12:38.681Z,101196.46
2022-07-29T08:13:40.845Z,101201.72
2022-07-29T08:14:42.797Z,101204.31
2022-07-29T08:15:44.848Z,101206.95
2022-07-29T08:16:47.026Z,101203.40
2022-07-29T08:17:49.060Z,101212.20
2022-07-29T08:18:50.931Z,101198.02
2022-07-29T08:19:53.073Z,101204.16
2022-07-29T08:20:55.236Z,101204.96
2022-07-29T08:21:57.179Z,101193.44
2022-07-29T08:22:59.130Z,101195.98
2022-07-29T08:24:05.301Z,101210.06
2022-07-29T08:25:05.385Z,101210.92
2022-07-29T08:26:08.576Z,101204.62
2022-07-29T08:27:33.528Z,101203.70
2022-07-29T08:28:14.323Z,101208.08
2022-07-29T08:29:19.905Z,101208.91
2022-07-29T08:30:21.402Z,101208.84
2022-07-29T08:31:23.421Z,101206.12
2022-07-29T08:32:50.988Z,101203.39
2022-07-29T08:33:29.098Z,101205.14
2022-07-29T08:34:31.155Z,101205.14
2022-07-29T08:35:35.695Z,101205.93
2022-07-29T08:36:37.207Z,101205.93
2022-07-29T08:37:39.160Z,101204.95
2022-07-29T08:38:41.116Z,101206.59
2022-07-29T08:39:43.075Z,101206.59
2022-07-29T08:40:45.153Z,101203.02
2022-07-29T08:41:56.606Z,101206.53
2022-07-29T08:42:50.898Z,101208.28
2022-07-29T08:43:52.819Z,101206.41
2022-07-29T08:44:54.986Z,101207.23
2022-07-29T08:45:56.976Z,101201.84
2022-07-29T08:46:59.202Z,101205.30
2022-07-29T08:48:01.154Z,101204.38
2022-07-29T08:49:03.167Z,101205.17
2022-07-29T08:50:05.464Z,101197.19
2022-07-29T08:51:07.407Z,101199.79
2022-07-29T08:52:09.875Z,101198.87
2022-07-29T08:53:11.830Z,101201.41
2022-07-29T08:54:13.778Z,101201.27
2022-07-29T08:55:15.734Z,101200.29
2022-07-29T08:56:19.735Z,101203.74
2022-07-29T08:57:23.325Z,101196.55
2022-07-29T08:58:25.953Z,101201.80
2022-07-29T08:59:28.047Z,101206.20
2022-07-29T09:00:33.076Z,101205.22
2022-07-29T09:01:36.548Z,101202.56
2022-07-29T09:02:39.024Z,101206.08
2022-07-29T09:03:41.065Z,101198.95
2022-07-29T09:04:43.443Z,101195.36
2022-07-29T09:05:48.091Z,101184.66
2022-07-29T09:06:49.296Z,101194.41
2022-07-29T09:07:52.061Z,101205.78
2022-07-29T09:08:54.028Z,101196.88
2022-07-29T09:09:55.966Z,101195.01
2022-07-29T09:10:58.113Z,101194.94
2022-07-29T09:12:00.094Z,101202.86
2022-07-29T09:13:02.020Z,101193.03
2022-07-29T09:14:03.997Z,101185.83
2022-07-29T09:15:06.039Z,101187.58
2022-07-29T09:16:09.543Z,101191.95
2022-07-29T09:17:11.820Z,101189.22
2022-07-29T09:18:19.477Z,101198.88
2022-07-29T09:19:17.385Z,101189.08
2022-07-29T09:20:19.986Z,101197.89
2022-07-29T09:21:21.975Z,101190.69
2022-07-29T09:22:23.930Z,101185.36
2022-07-29T09:23:25.853Z,101178.20
2022-07-29T09:24:27.796Z,101178.98
2022-07-29T09:25:29.751Z,101178.91
2022-07-29T09:26:32.119Z,101182.36
2022-07-29T09:27:34.065Z,101173.45
2022-07-29T09:28:36.015Z,101174.30
2022-07-29T09:29:37.974Z,101172.53
2022-07-29T09:30:40.439Z,101179.49
2022-07-29T09:31:42.515Z,101183.05
2022-07-29T09:32:44.341Z,101183.83
2022-07-29T09:33:46.245Z,101181.17
2022-07-29T09:34:48.144Z,101189.09
2022-07-29T09:35:57.092Z,101173.96
2022-07-29T09:36:54.583Z,101175.70
2022-07-29T09:37:56.771Z,101180.89
2022-07-29T09:38:58.722Z,101176.45
2022-07-29T09:40:00.689Z,101177.23
2022-07-29T09:41:05.407Z,101183.28
2022-07-29T09:42:06.314Z,101172.48
2022-07-29T09:43:08.375Z,101174.22
2022-07-29T09:44:10.319Z,101164.35
2022-07-29T09:45:12.278Z,101173.09
2022-07-29T09:46:14.944Z,101168.58
2022-07-29T09:47:17.205Z,101169.36
2022-07-29T09:48:19.165Z,101180.77
2022-07-29T09:49:21.193Z,101174.52
2022-07-29T09:50:24.940Z,101177.10
2022-07-29T09:51:38.446Z,101181.48
2022-07-29T09:52:30.667Z,101182.36
2022-07-29T09:53:32.605Z,101176.08
2022-07-29T09:54:34.559Z,101168.22
2022-07-29T09:55:36.417Z,101168.22
2022-07-29T09:56:38.876Z,101168.89
2022-07-29T09:57:40.829Z,101175.94
2022-07-29T09:58:42.776Z,101169.75
2022-07-29T09:59:50.053Z,101170.60
2022-07-29T10:00:48.577Z,101164.34
2022-07-29T10:01:50.784Z,101174.94
2022-07-29T10:02:52.807Z,101165.13
2022-07-29T10:03:54.791Z,101169.53
2022-07-29T10:04:56.744Z,101172.13
2022-07-29T10:05:58.702Z,101163.21
2022-07-29T10:07:04.655Z,101167.58
2022-07-29T10:08:07.108Z,101161.33
2022-07-29T10:09:09.059Z,101168.39
2022-07-29T10:10:12.356Z,101169.11
2022-07-29T10:11:14.398Z,101165.59
2022-07-29T10:12:16.351Z,101165.59
2022-07-29T10:13:18.310Z,101163.70
2022-07-29T10:14:20.262Z,101160.96
2022-07-29T10:15:22.208Z,101162.70
2022-07-29T10:16:25.930Z,101170.62
2022-07-29T10:17:27.959Z,101175.88
2022-07-29T10:18:30.118Z,101171.41
2022-07-29T10:19:32.068Z,101173.14
2022-07-29T10:20:34.431Z,101174.89
2022-07-29T10:21:36.849Z,101163.27
2022-07-29T10:22:54.475Z,101172.08
2022-07-29T10:23:47.037Z,101172.00
2022-07-29T10:24:46.332Z,101170.97
2022-07-29T10:25:48.282Z,101169.97
2022-07-29T10:26:50.660Z,101171.70
2022-07-29T10:27:52.615Z,101164.56
2022-07-29T10:28:54.551Z,101167.23
2022-07-29T10:29:56.535Z,101168.04
2022-07-29T10:30:58.613Z,101165.30
2022-07-29T10:32:00.538Z,101164.34
2022-07-29T10:33:02.467Z,101164.34
2022-07-29T10:34:04.417Z,101165.23
2022-07-29T10:35:06.375Z,101157.23
2022-07-29T10:36:09.316Z,101161.59
2022-07-29T10:37:11.341Z,101160.67
2022-07-29T10:38:16.544Z,101154.41
2022-07-29T10:39:17.060Z,101160.59
2022-07-29T10:40:21.359Z,101161.38
2022-07-29T10:41:24.434Z,101162.22
2022-07-29T10:42:29.669Z,101160.48
2022-07-29T10:43:30.190Z,101164.00
2022-07-29T10:44:33.985Z,101160.48
2022-07-29T10:45:36.751Z,101156.89
2022-07-29T10:46:39.256Z,101154.14
2022-07-29T10:47:42.981Z,101154.07
2022-07-29T10:48:45.025Z,101158.44
2022-07-29T10:49:47.130Z,101165.52
2022-07-29T10:50:50.402Z,101157.52
2022-07-29T10:51:52.672Z,101157.44
2022-07-29T10:52:54.624Z,101159.18
2022-07-29T10:53:56.593Z,101155.63
2022-07-29T10:54:59.968Z,101154.70
2022-07-29T10:56:02.111Z,101156.44
2022-07-29T10:57:05.909Z,101153.69
2022-07-29T10:58:08.167Z,101157.21
2022-07-29T10:59:10.132Z,101162.39
2022-07-29T11:00:16.953Z,101158.80
2022-07-29T11:01:18.942Z,101154.31
2022-07-29T11:02:41.975Z,101156.06
2022-07-29T11:03:26.789Z,101158.65
2022-07-29T11:04:28.793Z,101151.50
2022-07-29T11:05:32.310Z,101155.05
2022-07-29T11:06:34.738Z,101158.58
2022-07-29T11:07:45.780Z,101150.50
2022-07-29T11:08:42.236Z,101154.91
2022-07-29T11:09:46.035Z,101150.50
2022-07-29T11:10:48.187Z,101149.48
2022-07-29T11:11:51.549Z,101140.52
2022-07-29T11:12:54.760Z,101144.08
2022-07-29T11:13:56.985Z,101150.19
2022-07-29T11:14:59.277Z,101154.59
2022-07-29T11:16:01.226Z,101151.04
2022-07-29T11:17:03.180Z,101150.19
2022-07-29T11:18:06.967Z,101151.11
2022-07-29T11:19:08.933Z,101152.00
2022-07-29T11:20:12.529Z,101147.52
2022-07-29T11:21:15.191Z,101148.38
2022-07-29T11:22:19.291Z,101140.29
2022-07-29T11:23:23.088Z,101143.84
2022-07-29T11:24:29.070Z,101154.44
2022-07-29T11:25:50.321Z,101150.89
2022-07-29T11:26:33.254Z,101142.03
2022-07-29T11:27:36.741Z,101142.88
2022-07-29T11:28:38.788Z,101146.44
2022-07-29T11:29:43.053Z,101142.88
2022-07-29T11:30:45.463Z,101140.29
2022-07-29T11:31:49.260Z,101146.52
2022-07-29T11:32:51.213Z,101143.84
2022-07-29T11:33:56.911Z,101137.63
2022-07-29T11:34:58.083Z,101138.51
2022-07-29T11:36:00.734Z,101142.88
2022-07-29T11:37:03.837Z,101148.14
2022-07-29T11:38:06.297Z,101149.88
2022-07-29T11:39:08.255Z,101149.03
2022-07-29T11:40:11.368Z,101147.20
2022-07-29T11:41:13.724Z,101145.47
2022-07-29T11:42:16.274Z,101144.55
2022-07-29T11:43:18.939Z,101134.75
2022-07-29T11:44:20.885Z,101140.95
2022-07-29T11:45:43.055Z,101150.77
2022-07-29T11:46:29.294Z,101139.20
2022-07-29T11:47:31.388Z,101142.80
2022-07-29T11:48:35.142Z,101140.14
2022-07-29T11:49:38.119Z,101133.09
2022-07-29T11:50:44.584Z,101133.95
2022-07-29T11:51:48.586Z,101132.13
2022-07-29T11:52:49.966Z,101133.02
2022-07-29T11:53:52.483Z,101131.20
2022-07-29T11:54:58.249Z,101124.08
2022-07-29T11:55:58.623Z,101129.42